Time;durP1;ratioP1;P1;durP2;ratioP2;P2;SDS_P1;SDS_P2;PMS_P1;PMS_P2;Temp;Humidity;BMP_temperature;BMP_pressure;BME280_temperature;BME280_humidity;BME280_pressure;Samples;Min_cycle;Max_cycle;Signal;HPM_P1;HPM_P2
2022/07/30 00:00:26;;;;;;;12.10;10.90;;;24.90;81.30;;;;;;5052230;28;20583;-72
2022/07/30 00:02:53;;;;;;;13.93;11.50;;;24.90;81.40;;;;;;5058777;28;20646;-72
2022/07/30 00:05:20;;;;;;;14.53;12.37;;;24.80;81.50;;;;;;5049083;28;20210;-72
2022/07/30 00:07:47;;;;;;;15.77;13.80;;;24.80;81.60;;;;;;5046734;28;20301;-73
2022/07/30 00:10:15;;;;;;;17.23;15.50;;;24.80;81.80;;;;;;5051556;28;20203;-72
2022/07/30 00:12:42;;;;;;;15.60;13.70;;;24.80;81.90;;;;;;5050720;28;20205;-72
2022/07/30 00:15:09;;;;;;;15.43;13.83;;;24.80;82.10;;;;;;5039092;28;20218;-72
2022/07/30 00:17:36;;;;;;;15.67;13.87;;;24.80;82.30;;;;;;5052490;28;20213;-72
2022/07/30 00:20:03;;;;;;;15.47;13.87;;;24.80;82.40;;;;;;5044444;28;20199;-72
2022/07/30 00:22:31;;;;;;;15.50;14.00;;;24.80;82.30;;;;;;5043678;28;20216;-73
2022/07/30 00:24:58;;;;;;;21.53;13.87;;;24.80;82.20;;;;;;5042462;28;20210;-73
2022/07/30 00:27:25;;;;;;;14.20;12.70;;;24.80;82.10;;;;;;5051777;28;20224;-72
2022/07/30 00:29:52;;;;;;;14.43;13.07;;;24.80;82.00;;;;;;5050663;28;20641;-72
2022/07/30 00:32:19;;;;;;;16.23;13.87;;;24.80;82.00;;;;;;5041391;28;20213;-73
2022/07/30 00:34:46;;;;;;;14.80;13.30;;;24.80;81.90;;;;;;5058213;28;20198;-72
2022/07/30 00:37:13;;;;;;;15.17;13.57;;;24.80;81.90;;;;;;5049318;28;20286;-72
2022/07/30 00:39:40;;;;;;;14.80;13.27;;;24.80;81.90;;;;;;5052981;28;20230;-72
2022/07/30 00:42:08;;;;;;;14.17;12.70;;;24.80;81.90;;;;;;5047514;28;20632;-72
2022/07/30 00:44:35;;;;;;;14.70;13.30;;;24.80;82.00;;;;;;5043783;28;20307;-73
2022/07/30 00:47:07;;;;;;;14.77;12.97;;;24.80;81.90;;;;;;5048653;28;20226;-73
2022/07/30 00:49:34;;;;;;;15.70;13.60;;;24.80;82.00;;;;;;5047176;28;20200;-73
2022/07/30 00:52:01;;;;;;;14.97;13.57;;;24.80;82.00;;;;;;5048188;28;20264;-72
2022/07/30 00:54:28;;;;;;;14.40;12.93;;;24.80;82.10;;;;;;5042561;28;20571;-72
2022/07/30 00:56:55;;;;;;;15.40;14.00;;;24.80;82.10;;;;;;5050394;28;20308;-72
2022/07/30 00:59:22;;;;;;;14.13;12.77;;;24.80;82.10;;;;;;5049256;28;20565;-72
2022/07/30 01:01:50;;;;;;;14.17;12.70;;;24.80;82.10;;;;;;5062942;28;20203;-72
2022/07/30 01:04:17;;;;;;;14.47;12.97;;;24.80;82.10;;;;;;5063874;28;20241;-72
2022/07/30 01:06:44;;;;;;;15.87;13.47;;;24.80;81.90;;;;;;5043875;28;20211;-71
2022/07/30 01:09:11;;;;;;;14.30;12.30;;;24.80;81.90;;;;;;5052263;28;20218;-71
2022/07/30 01:11:41;;;;;;;15.00;13.50;;;24.80;81.80;;;;;;5046579;28;20210;-72
2022/07/30 01:14:08;;;;;;;14.30;12.83;;;24.70;81.60;;;;;;5042099;28;20207;-71
2022/07/30 01:16:38;;;;;;;14.03;12.63;;;24.80;81.60;;;;;;5050139;28;20195;-71
2022/07/30 01:20:13;;;;;;;14.30;12.87;;;24.70;81.60;;;;;;5051755;28;20204;-71
2022/07/30 01:22:16;;;;;;;15.60;13.77;;;24.70;81.70;;;;;;5048750;28;20649;-72
2022/07/30 01:25:02;;;;;;;15.20;12.10;;;24.70;81.80;;;;;;5049375;28;20544;-71
2022/07/30 01:27:41;;;;;;;16.10;14.03;;;24.70;81.70;;;;;;5045847;28;20223;-72
2022/07/30 01:30:10;;;;;;;13.73;12.33;;;24.70;81.70;;;;;;5059362;28;20207;-72
2022/07/30 01:32:41;;;;;;;14.23;12.93;;;24.60;81.60;;;;;;5049268;28;20201;-72
2022/07/30 01:35:11;;;;;;;14.70;13.03;;;24.70;81.70;;;;;;5052639;28;20210;-71
2022/07/30 01:37:41;;;;;;;15.37;13.73;;;24.60;81.60;;;;;;5050722;28;20233;-71
2022/07/30 01:40:09;;;;;;;17.43;13.80;;;24.60;81.60;;;;;;5063817;28;20272;-71
2022/07/30 01:42:38;;;;;;;14.80;13.30;;;24.60;81.60;;;;;;5048190;28;20257;-71
2022/07/30 01:45:07;;;;;;;13.70;12.40;;;24.60;81.60;;;;;;5061513;28;20536;-70
2022/07/30 01:47:37;;;;;;;14.57;13.13;;;24.60;81.70;;;;;;5034946;28;20293;-71
2022/07/30 01:50:12;;;;;;;14.90;12.67;;;24.60;81.70;;;;;;5059988;28;20645;-71
2022/07/30 01:52:42;;;;;;;16.00;13.10;;;24.60;81.70;;;;;;5040474;28;20208;-72
2022/07/30 01:55:17;;;;;;;14.37;12.97;;;24.60;81.80;;;;;;5049127;28;20203;-72
2022/07/30 01:57:48;;;;;;;13.83;12.53;;;24.60;81.80;;;;;;5062591;28;20206;-73
2022/07/30 02:00:16;;;;;;;15.40;12.87;;;24.60;81.80;;;;;;5039949;28;20260;-73
2022/07/30 02:02:45;;;;;;;15.80;12.90;;;24.60;81.90;;;;;;5047292;28;20206;-73
2022/07/30 02:05:14;;;;;;;14.67;13.10;;;24.60;81.80;;;;;;5043488;28;20221;-73
2022/07/30 02:07:44;;;;;;;15.27;13.10;;;24.60;81.80;;;;;;5045782;28;20215;-72
2022/07/30 02:10:44;;;;;;;14.67;13.17;;;24.60;81.70;;;;;;5051683;28;20198;-72
2022/07/30 02:13:26;;;;;;;12.90;11.47;;;24.60;81.60;;;;;;5042467;28;20992;-72
2022/07/30 02:15:56;;;;;;;13.77;12.33;;;24.60;81.40;;;;;;5047762;28;20285;-72
2022/07/30 02:18:42;;;;;;;13.83;12.37;;;24.60;81.40;;;;;;5052395;28;20207;-72
2022/07/30 02:21:15;;;;;;;14.83;13.20;;;24.60;81.30;;;;;;5040998;28;20223;-72
2022/07/30 02:23:45;;;;;;;13.47;12.20;;;24.60;81.20;;;;;;5042418;28;20237;-72
2022/07/30 02:26:17;;;;;;;14.87;13.40;;;24.60;81.20;;;;;;5046904;28;20201;-72
2022/07/30 02:28:48;;;;;;;17.13;13.73;;;24.60;81.10;;;;;;5045611;28;20256;-71
2022/07/30 02:31:23;;;;;;;14.30;12.87;;;24.60;81.10;;;;;;5039357;28;20249;-72
2022/07/30 02:33:57;;;;;;;14.63;13.20;;;24.60;81.00;;;;;;5039150;28;20305;-71
2022/07/30 02:36:26;;;;;;;14.70;13.30;;;24.60;80.90;;;;;;5046137;28;20230;-71
2022/07/30 02:38:55;;;;;;;17.90;13.57;;;24.60;80.90;;;;;;5045120;28;20277;-71
2022/07/30 02:41:25;;;;;;;14.90;13.37;;;24.70;81.00;;;;;;5046266;28;20208;-70
2022/07/30 02:43:54;;;;;;;14.73;13.23;;;24.60;81.10;;;;;;5063744;28;20206;-71
2022/07/30 02:46:23;;;;;;;15.73;14.13;;;24.60;81.20;;;;;;5048573;28;20256;-72
2022/07/30 02:49:10;;;;;;;16.47;14.83;;;24.60;81.20;;;;;;5048057;28;20778;-71
2022/07/30 02:51:41;;;;;;;17.07;15.27;;;24.60;81.20;;;;;;5049600;28;20293;-72
2022/07/30 02:54:09;;;;;;;16.53;14.83;;;24.50;81.20;;;;;;5033910;28;20245;-72
2022/07/30 02:56:40;;;;;;;16.17;14.47;;;24.50;81.30;;;;;;5055565;28;20207;-71
2022/07/30 02:59:09;;;;;;;17.53;15.83;;;24.50;81.50;;;;;;5038746;28;20836;-72
2022/07/30 03:01:36;;;;;;;18.10;16.30;;;24.50;81.60;;;;;;5051935;28;20268;-72
2022/07/30 03:04:05;;;;;;;20.57;17.47;;;24.40;81.50;;;;;;5053814;28;20601;-71
2022/07/30 03:06:32;;;;;;;19.53;17.33;;;24.40;81.60;;;;;;5046873;28;20278;-71
2022/07/30 03:09:01;;;;;;;18.67;16.73;;;24.40;81.60;;;;;;5062057;28;20235;-71
2022/07/30 03:11:30;;;;;;;21.50;18.33;;;24.30;81.80;;;;;;5054155;28;20260;-71
2022/07/30 03:13:58;;;;;;;20.27;18.17;;;24.30;81.90;;;;;;5050382;28;20219;-71
2022/07/30 03:16:27;;;;;;;20.17;18.03;;;24.20;82.60;;;;;;5051298;28;20207;-71
2022/07/30 03:19:01;;;;;;;19.93;18.13;;;24.20;82.20;;;;;;5053132;28;20637;-71
2022/07/30 03:21:33;;;;;;;19.77;17.90;;;24.20;82.40;;;;;;5048631;28;20220;-71
2022/07/30 03:24:02;;;;;;;21.73;19.53;;;24.10;82.50;;;;;;5052378;28;20693;-71
2022/07/30 03:26:33;;;;;;;21.57;19.47;;;24.10;82.60;;;;;;5054237;28;20265;-71
2022/07/30 03:29:01;;;;;;;21.37;19.13;;;24.00;82.70;;;;;;5048481;28;20320;-71
2022/07/30 03:31:29;;;;;;;21.00;18.67;;;24.00;82.80;;;;;;5052463;28;20639;-71
2022/07/30 03:34:02;;;;;;;21.93;19.63;;;24.00;83.00;;;;;;5047927;28;20195;-71
2022/07/30 03:36:33;;;;;;;22.47;20.37;;;24.00;83.10;;;;;;5052417;28;20214;-71
2022/07/30 03:39:04;;;;;;;22.70;20.40;;;23.90;83.20;;;;;;5070059;28;20226;-71
2022/07/30 03:41:32;;;;;;;21.93;19.87;;;23.90;83.40;;;;;;5048604;28;20545;-70
2022/07/30 03:44:00;;;;;;;23.30;20.97;;;23.90;83.50;;;;;;5060803;28;20219;-70
2022/07/30 03:50:42;;;;;;;23.17;20.97;;;23.90;83.80;;;;;;5041443;28;20201;-70
2022/07/30 03:53:10;;;;;;;25.17;22.67;;;23.90;83.80;;;;;;5046914;28;20657;-72
2022/07/30 03:55:58;;;;;;;25.00;22.33;;;23.90;83.80;;;;;;5060728;28;20228;-71
2022/07/30 03:58:55;;;;;;;26.63;22.57;;;23.90;83.80;;;;;;5049674;28;20238;-71
2022/07/30 04:01:27;;;;;;;24.57;22.10;;;23.90;83.90;;;;;;5037954;28;20210;-70
2022/07/30 04:04:09;;;;;;;23.03;20.67;;;23.90;84.00;;;;;;5049535;28;20211;-70
2022/07/30 04:06:39;;;;;;;23.93;21.53;;;23.80;83.90;;;;;;5048042;28;20555;-70
2022/07/30 04:09:10;;;;;;;26.47;22.63;;;23.80;83.90;;;;;;5055299;28;20246;-71
2022/07/30 04:11:38;;;;;;;24.53;22.13;;;23.80;83.90;;;;;;5048303;28;20209;-70
2022/07/30 04:14:14;;;;;;;25.87;23.33;;;23.80;84.00;;;;;;5040835;28;20293;-70
2022/07/30 04:17:07;;;;;;;25.73;23.23;;;23.70;84.10;;;;;;5044586;28;20578;-71
2022/07/30 04:19:40;;;;;;;25.50;22.73;;;23.80;84.20;;;;;;5046701;28;20200;-70
2022/07/30 04:22:10;;;;;;;25.90;23.03;;;23.80;84.20;;;;;;5045539;28;20207;-70
2022/07/30 04:24:39;;;;;;;26.20;23.60;;;23.80;84.30;;;;;;5052345;28;20242;-71
2022/07/30 04:27:06;;;;;;;28.13;25.30;;;23.80;84.50;;;;;;5060795;28;20210;-71
2022/07/30 04:29:34;;;;;;;27.83;24.87;;;23.80;84.50;;;;;;5050107;28;20226;-71
2022/07/30 04:32:01;;;;;;;27.17;24.47;;;23.80;84.60;;;;;;5047859;28;20198;-71
2022/07/30 04:34:52;;;;;;;26.83;24.27;;;23.90;84.70;;;;;;5047666;28;20211;-71
2022/07/30 04:37:38;;;;;;;27.43;24.60;;;23.90;84.70;;;;;;5033931;28;20202;-71
2022/07/30 04:40:06;;;;;;;27.97;25.00;;;23.90;84.80;;;;;;5051436;28;20218;-71
2022/07/30 04:42:33;;;;;;;27.17;24.47;;;23.90;84.80;;;;;;5043782;28;20203;-72
2022/07/30 04:45:06;;;;;;;26.73;24.00;;;24.00;84.90;;;;;;5045874;28;20229;-72
2022/07/30 04:47:48;;;;;;;27.97;25.07;;;24.00;84.80;;;;;;5062295;28;20636;-72
2022/07/30 04:50:50;;;;;;;29.87;25.53;;;24.00;84.80;;;;;;5063634;28;20209;-72
2022/07/30 04:53:19;;;;;;;27.77;24.47;;;24.00;84.70;;;;;;5064611;28;20210;-72
2022/07/30 04:55:52;;;;;;;27.07;24.43;;;24.10;84.70;;;;;;5041433;28;20207;-72
2022/07/30 04:58:24;;;;;;;27.60;24.80;;;24.10;84.60;;;;;;5052608;28;20292;-72
2022/07/30 05:00:54;;;;;;;28.30;25.40;;;24.20;84.60;;;;;;5059905;28;20231;-72
2022/07/30 05:03:27;;;;;;;27.07;24.27;;;24.20;84.50;;;;;;5053321;28;20206;-72
2022/07/30 05:05:56;;;;;;;28.40;25.47;;;24.20;84.30;;;;;;5064332;28;20289;-72
2022/07/30 05:08:29;;;;;;;30.20;26.70;;;24.30;84.30;;;;;;5046707;28;20222;-72
2022/07/30 05:11:00;;;;;;;28.53;25.67;;;24.30;84.20;;;;;;5050291;28;20523;-72
2022/07/30 05:13:27;;;;;;;30.10;27.00;;;24.30;84.00;;;;;;5054965;28;20237;-72
2022/07/30 05:16:07;;;;;;;29.10;26.17;;;24.30;84.00;;;;;;5044936;28;20207;-72
2022/07/30 05:18:34;;;;;;;29.90;26.77;;;24.30;83.90;;;;;;5043150;28;20197;-72
2022/07/30 05:21:02;;;;;;;31.17;27.83;;;24.40;83.90;;;;;;5060162;28;20289;-71
2022/07/30 05:23:42;;;;;;;30.00;26.93;;;24.50;84.00;;;;;;5048253;28;20213;-71
2022/07/30 05:26:45;;;;;;;30.20;25.27;;;24.50;83.80;;;;;;5047072;28;20216;-72
2022/07/30 05:29:16;;;;;;;31.50;27.50;;;24.60;83.60;;;;;;5060509;28;20226;-72
2022/07/30 05:31:53;;;;;;;32.00;28.63;;;24.70;83.50;;;;;;5065576;28;20206;-70
2022/07/30 05:34:20;;;;;;;31.20;27.87;;;24.80;83.00;;;;;;5054018;28;20306;-71
2022/07/30 05:36:48;;;;;;;32.07;27.03;;;24.90;82.60;;;;;;5038178;28;20202;-71
2022/07/30 05:39:16;;;;;;;30.77;27.50;;;25.10;82.20;;;;;;5037146;28;20211;-71
2022/07/30 05:42:04;;;;;;;30.93;27.97;;;25.10;81.60;;;;;;5038406;28;20686;-72
2022/07/30 05:44:46;;;;;;;30.57;27.37;;;25.20;81.30;;;;;;5051658;28;20213;-72
2022/07/30 05:47:13;;;;;;;29.97;27.03;;;25.30;80.90;;;;;;5049448;28;20192;-71
2022/07/30 05:49:40;;;;;;;33.23;29.77;;;25.30;80.60;;;;;;5059230;28;20234;-70
2022/07/30 05:52:12;;;;;;;32.27;27.93;;;25.30;80.70;;;;;;5049832;28;20225;-71
2022/07/30 05:54:40;;;;;;;31.83;28.43;;;25.40;81.00;;;;;;5050208;28;20226;-71
2022/07/30 05:57:23;;;;;;;32.40;28.13;;;25.40;81.00;;;;;;5047784;28;20542;-72
2022/07/30 05:59:50;;;;;;;32.87;28.50;;;25.50;80.90;;;;;;5049708;28;20597;-71
2022/07/30 06:02:22;;;;;;;32.47;29.13;;;25.60;80.40;;;;;;5041829;28;20371;-71
2022/07/30 06:05:09;;;;;;;33.50;28.90;;;25.60;79.90;;;;;;5044290;28;20222;-71
2022/07/30 06:07:36;;;;;;;30.97;27.93;;;25.70;79.90;;;;;;5043631;28;20203;-71
2022/07/30 06:10:05;;;;;;;32.13;28.00;;;25.70;79.90;;;;;;5058292;28;20221;-71
2022/07/30 06:12:32;;;;;;;32.20;29.00;;;25.80;79.90;;;;;;5045754;28;20324;-71
2022/07/30 06:15:00;;;;;;;32.27;28.90;;;25.90;79.60;;;;;;5047730;28;20213;-71
2022/07/30 06:17:32;;;;;;;32.77;29.50;;;26.00;79.40;;;;;;5042311;28;20204;-71
2022/07/30 06:20:34;;;;;;;30.37;27.10;;;26.20;78.80;;;;;;5042522;28;20296;-71
2022/07/30 06:23:14;;;;;;;29.27;26.27;;;26.30;78.00;;;;;;5056688;28;20312;-71
2022/07/30 06:26:13;;;;;;;28.93;26.03;;;26.30;77.20;;;;;;5053801;28;20243;-71
2022/07/30 06:28:41;;;;;;;28.83;25.83;;;26.40;76.60;;;;;;5041876;28;20232;-71
2022/07/30 06:31:16;;;;;;;27.07;24.27;;;26.50;76.60;;;;;;5032174;28;20201;-71
2022/07/30 06:33:44;;;;;;;26.60;23.63;;;26.60;76.30;;;;;;5047736;28;20294;-71
2022/07/30 06:36:12;;;;;;;27.53;24.60;;;26.70;76.10;;;;;;5050579;28;20209;-71
2022/07/30 06:38:49;;;;;;;27.20;24.40;;;26.70;75.60;;;;;;5045100;28;20266;-71
2022/07/30 06:41:23;;;;;;;26.57;23.73;;;26.90;75.50;;;;;;5051044;28;20210;-70
2022/07/30 06:43:52;;;;;;;26.50;23.20;;;26.90;74.80;;;;;;5048208;28;20736;-70
2022/07/30 06:46:57;;;;;;;25.17;22.53;;;27.00;74.20;;;;;;5076070;28;20555;-70
2022/07/30 06:49:31;;;;;;;26.00;22.47;;;27.10;74.30;;;;;;5070338;28;20248;-71
2022/07/30 06:51:59;;;;;;;25.13;22.20;;;27.20;74.10;;;;;;5059726;28;20228;-72
2022/07/30 06:54:28;;;;;;;24.20;21.73;;;27.20;72.90;;;;;;5049202;28;20220;-72
2022/07/30 06:57:03;;;;;;;24.93;22.27;;;27.30;73.30;;;;;;5040008;28;20203;-71
2022/07/30 06:59:30;;;;;;;23.43;21.13;;;27.40;73.00;;;;;;5038827;28;20266;-71
2022/07/30 07:02:24;;;;;;;22.40;20.10;;;27.50;71.40;;;;;;5049813;28;20218;-72
2022/07/30 07:05:06;;;;;;;31.03;21.77;;;27.50;71.10;;;;;;5047500;28;20673;-71
2022/07/30 07:07:34;;;;;;;23.60;20.90;;;27.60;71.60;;;;;;5041050;28;20661;-71
2022/07/30 07:10:10;;;;;;;21.87;19.60;;;27.70;71.90;;;;;;5045558;28;20560;-71
2022/07/30 07:12:38;;;;;;;21.90;19.70;;;27.80;70.40;;;;;;5038311;28;20203;-71
2022/07/30 07:15:06;;;;;;;20.83;18.63;;;27.80;70.20;;;;;;5041247;28;20650;-71
2022/07/30 07:17:33;;;;;;;20.17;18.10;;;27.80;69.20;;;;;;5032087;28;20294;-71
2022/07/30 07:20:20;;;;;;;19.53;17.57;;;27.80;69.50;;;;;;5033914;28;20249;-71
2022/07/30 07:22:54;;;;;;;17.97;16.17;;;27.90;70.00;;;;;;5044274;28;20293;-71
2022/07/30 07:25:24;;;;;;;18.60;16.60;;;27.90;70.20;;;;;;5050283;28;20207;-71
2022/07/30 07:27:51;;;;;;;20.90;17.37;;;28.00;68.80;;;;;;5048002;28;20302;-71
2022/07/30 07:30:40;;;;;;;16.97;15.27;;;28.10;68.40;;;;;;5049629;28;20198;-71
2022/07/30 07:33:07;;;;;;;16.10;14.50;;;28.20;67.80;;;;;;5060330;28;20241;-72
2022/07/30 07:35:35;;;;;;;16.17;14.53;;;28.20;67.70;;;;;;5049517;28;20203;-71
2022/07/30 07:38:17;;;;;;;18.73;16.93;;;28.20;67.60;;;;;;5052640;28;20635;-71
2022/07/30 07:40:46;;;;;;;14.10;12.77;;;28.20;68.20;;;;;;5061083;28;20208;-71
2022/07/30 07:43:14;;;;;;;14.70;13.20;;;28.20;67.40;;;;;;5045896;28;20269;-71
2022/07/30 07:45:42;;;;;;;18.27;13.53;;;28.30;66.70;;;;;;5051677;28;20805;-71
2022/07/30 07:48:10;;;;;;;18.60;15.40;;;28.50;67.10;;;;;;5058820;28;20221;-71
2022/07/30 07:50:48;;;;;;;13.17;11.97;;;28.50;66.10;;;;;;5047167;28;20195;-71
2022/07/30 07:53:21;;;;;;;13.87;12.57;;;28.60;65.90;;;;;;5060979;28;20221;-71
2022/07/30 07:55:49;;;;;;;16.70;15.10;;;28.70;65.40;;;;;;5065113;28;20199;-71
2022/07/30 07:58:17;;;;;;;15.73;14.03;;;28.80;64.90;;;;;;5046581;28;20738;-71
2022/07/30 08:00:56;;;;;;;14.93;13.43;;;28.80;65.40;;;;;;5044993;28;20201;-71
2022/07/30 08:03:43;;;;;;;13.87;12.57;;;28.80;63.70;;;;;;5041892;28;20269;-71
2022/07/30 08:06:30;;;;;;;13.23;11.93;;;28.70;64.80;;;;;;5040928;28;20259;-70
2022/07/30 08:09:16;;;;;;;14.63;13.00;;;28.70;64.70;;;;;;5049217;28;20275;-70
2022/07/30 08:12:04;;;;;;;15.93;14.33;;;28.80;65.20;;;;;;5039331;28;20207;-71
2022/07/30 08:14:50;;;;;;;13.80;12.40;;;29.00;63.80;;;;;;5044883;28;20217;-71
2022/07/30 08:17:40;;;;;;;16.33;12.13;;;28.90;64.00;;;;;;5049826;28;20209;-71
2022/07/30 08:20:13;;;;;;;15.00;13.40;;;28.90;63.80;;;;;;5060401;28;20505;-71
2022/07/30 08:22:40;;;;;;;14.13;12.83;;;28.90;63.70;;;;;;5035723;28;20203;-71
2022/07/30 08:25:08;;;;;;;14.03;12.13;;;28.90;64.40;;;;;;5045250;28;20206;-71
2022/07/30 08:27:36;;;;;;;14.13;11.40;;;29.10;63.50;;;;;;5046127;28;20206;-71
2022/07/30 08:30:05;;;;;;;13.83;11.37;;;29.20;63.50;;;;;;5048536;28;20292;-72
2022/07/30 08:32:33;;;;;;;12.43;10.00;;;29.50;63.40;;;;;;5040685;28;20222;-72
2022/07/30 08:35:04;;;;;;;13.83;11.60;;;29.60;62.50;;;;;;5048202;28;20209;-72
2022/07/30 08:37:33;;;;;;;13.03;11.83;;;29.80;62.80;;;;;;5049960;28;20595;-72
2022/07/30 08:40:01;;;;;;;13.90;12.13;;;30.00;62.20;;;;;;5051333;28;20294;-71
2022/07/30 08:42:32;;;;;;;11.97;8.73;;;30.10;62.50;;;;;;5044056;28;20207;-71
2022/07/30 08:45:00;;;;;;;10.67;9.63;;;30.10;60.10;;;;;;5045092;28;20245;-71
2022/07/30 08:47:32;;;;;;;12.63;11.53;;;30.20;60.00;;;;;;5051834;28;20639;-71
2022/07/30 08:50:11;;;;;;;12.43;10.73;;;30.30;59.60;;;;;;5043102;28;20218;-71
2022/07/30 08:53:02;;;;;;;9.00;7.93;;;30.20;60.30;;;;;;5043979;28;20775;-72
2022/07/30 08:55:29;;;;;;;11.83;10.73;;;30.30;60.50;;;;;;5047429;28;20207;-72
2022/07/30 08:57:56;;;;;;;11.77;10.27;;;30.40;60.70;;;;;;5049495;28;20217;-72
2022/07/30 09:00:24;;;;;;;10.77;9.73;;;30.60;60.40;;;;;;5051048;28;20265;-72
2022/07/30 09:02:51;;;;;;;9.67;8.67;;;30.80;59.40;;;;;;5046130;28;20264;-72
2022/07/30 09:05:18;;;;;;;8.63;7.83;;;30.70;57.20;;;;;;5045046;28;20289;-72
2022/07/30 09:07:45;;;;;;;8.73;7.10;;;30.50;58.20;;;;;;5041921;28;20533;-72
2022/07/30 09:10:23;;;;;;;9.27;7.20;;;30.40;59.30;;;;;;5030955;28;20230;-71
2022/07/30 09:12:50;;;;;;;8.03;7.33;;;30.50;58.30;;;;;;5045542;28;20195;-71
2022/07/30 09:15:21;;;;;;;7.67;6.97;;;30.50;58.20;;;;;;5047836;28;20338;-71
2022/07/30 09:17:52;;;;;;;7.37;6.77;;;30.50;57.10;;;;;;5036854;28;20207;-71
2022/07/30 09:20:25;;;;;;;5.83;5.23;;;30.40;58.00;;;;;;5046490;28;20203;-71
2022/07/30 09:22:56;;;;;;;6.43;5.83;;;30.40;57.70;;;;;;5038023;28;20867;-73
2022/07/30 09:25:53;;;;;;;6.63;6.00;;;30.60;58.00;;;;;;5052413;28;20281;-72
2022/07/30 09:28:38;;;;;;;7.70;7.00;;;30.80;58.10;;;;;;5041846;28;20218;-72
2022/07/30 09:31:15;;;;;;;9.97;6.13;;;31.00;57.30;;;;;;5044266;28;20279;-72
2022/07/30 09:34:02;;;;;;;8.53;7.73;;;31.20;56.40;;;;;;5045318;28;20726;-72
2022/07/30 09:36:47;;;;;;;8.03;7.33;;;31.20;56.20;;;;;;5047316;28;20218;-72
2022/07/30 09:39:34;;;;;;;8.30;7.50;;;31.40;57.30;;;;;;5043763;28;20198;-72
2022/07/30 09:42:21;;;;;;;7.33;6.73;;;31.50;57.00;;;;;;5038965;28;20207;-72
2022/07/30 09:44:51;;;;;;;5.47;4.97;;;31.80;55.90;;;;;;5042749;28;20208;-72
2022/07/30 09:47:36;;;;;;;7.87;7.17;;;31.90;53.60;;;;;;5054044;28;20207;-72
2022/07/30 09:50:09;;;;;;;5.43;4.93;;;31.90;53.70;;;;;;5059220;28;20289;-72
2022/07/30 09:52:39;;;;;;;6.50;5.90;;;31.90;54.30;;;;;;5049337;28;20245;-72
2022/07/30 09:55:12;;;;;;;5.80;5.27;;;31.90;52.60;;;;;;5048744;28;20287;-72
2022/07/30 09:57:59;;;;;;;5.50;5.00;;;31.80;52.70;;;;;;5047207;28;20205;-73
2022/07/30 10:00:29;;;;;;;4.20;3.80;;;31.80;53.70;;;;;;5041628;28;20286;-72
2022/07/30 10:03:25;;;;;;;3.27;3.07;;;31.80;53.90;;;;;;5055260;28;20224;-73
2022/07/30 10:06:35;;;;;;;4.80;4.30;;;32.00;54.30;;;;;;5043587;28;20597;-72
2022/07/30 10:09:31;;;;;;;5.97;5.47;;;32.20;52.80;;;;;;5048499;28;20322;-72
2022/07/30 10:12:04;;;;;;;5.27;4.77;;;32.30;52.20;;;;;;5037687;28;20202;-73
2022/07/30 10:14:43;;;;;;;4.03;3.70;;;32.30;53.10;;;;;;5039327;28;20194;-73
2022/07/30 10:17:14;;;;;;;3.50;3.20;;;32.50;52.90;;;;;;5047178;28;20202;-73
2022/07/30 10:19:53;;;;;;;3.97;3.67;;;32.60;51.40;;;;;;5042413;28;20245;-71
2022/07/30 10:22:41;;;;;;;3.27;2.97;;;32.70;51.30;;;;;;5048374;28;20289;-71
2022/07/30 10:25:31;;;;;;;4.30;3.97;;;32.80;50.30;;;;;;5041358;28;20288;-71
2022/07/30 10:28:20;;;;;;;4.43;3.50;;;32.90;49.40;;;;;;5040904;28;20240;-72
2022/07/30 10:30:53;;;;;;;5.10;4.70;;;32.90;50.30;;;;;;5048749;28;20225;-73
2022/07/30 10:33:23;;;;;;;4.87;4.10;;;33.00;50.20;;;;;;5038414;28;20203;-73
2022/07/30 10:36:09;;;;;;;4.97;4.57;;;33.00;49.30;;;;;;5039711;28;20666;-73
2022/07/30 10:38:39;;;;;;;5.97;4.70;;;33.00;49.40;;;;;;5047343;28;20249;-73
2022/07/30 10:41:49;;;;;;;5.30;4.57;;;33.00;49.90;;;;;;5042603;28;20237;-73
2022/07/30 10:44:38;;;;;;;5.53;5.03;;;33.00;50.80;;;;;;5039831;28;20278;-71
2022/07/30 10:47:08;;;;;;;5.33;4.83;;;33.20;50.60;;;;;;5036615;28;20230;-73
2022/07/30 10:49:36;;;;;;;4.87;4.47;;;33.30;50.00;;;;;;5041357;28;20215;-72
2022/07/30 10:52:07;;;;;;;4.70;3.87;;;33.40;49.60;;;;;;5042997;28;20609;-72
2022/07/30 10:54:38;;;;;;;5.10;4.70;;;33.50;50.20;;;;;;5039296;28;20238;-72
2022/07/30 10:57:34;;;;;;;5.33;4.83;;;33.60;49.50;;;;;;5062546;28;20210;-72
2022/07/30 11:00:12;;;;;;;5.00;4.50;;;33.70;48.80;;;;;;5045900;28;20269;-72
2022/07/30 11:03:27;;;;;;;6.03;5.43;;;33.70;48.80;;;;;;5045454;28;20199;-72
2022/07/30 11:06:16;;;;;;;4.53;4.13;;;33.70;49.00;;;;;;5040300;28;20209;-72
2022/07/30 11:08:50;;;;;;;4.80;4.40;;;33.70;48.90;;;;;;5054402;28;20287;-72
2022/07/30 11:11:23;;;;;;;7.30;5.70;;;33.90;49.60;;;;;;5051650;28;20303;-72
2022/07/30 11:14:11;;;;;;;5.37;4.90;;;34.00;49.30;;;;;;5046268;28;20638;-72
2022/07/30 11:16:38;;;;;;;5.43;4.83;;;34.20;48.80;;;;;;5051334;28;20213;-72
2022/07/30 11:19:15;;;;;;;5.87;5.30;;;34.20;48.20;;;;;;5052330;28;20199;-72
2022/07/30 11:22:43;;;;;;;5.90;5.30;;;34.20;48.50;;;;;;5045416;28;20644;-72
2022/07/30 11:25:33;;;;;;;4.47;4.07;;;34.30;48.60;;;;;;5074319;28;20205;-71
2022/07/30 11:28:37;;;;;;;4.37;3.97;;;34.30;48.20;;;;;;5073157;28;20209;-71
2022/07/30 11:31:34;;;;;;;5.10;4.33;;;34.50;47.60;;;;;;5042255;28;20225;-71
2022/07/30 11:34:22;;;;;;;3.97;3.57;;;34.50;46.90;;;;;;5046246;28;20211;-72
2022/07/30 11:37:18;;;;;;;4.20;3.73;;;34.60;45.40;;;;;;5059101;28;20298;-71
2022/07/30 11:40:01;;;;;;;5.30;4.37;;;34.60;44.60;;;;;;5046568;28;20217;-72
2022/07/30 11:42:33;;;;;;;3.90;3.60;;;34.60;45.20;;;;;;5043426;28;20290;-72
2022/07/30 11:45:15;;;;;;;3.63;3.27;;;34.50;45.90;;;;;;5050826;28;20214;-71
2022/07/30 11:47:48;;;;;;;3.70;3.27;;;34.40;46.10;;;;;;5045040;28;20652;-71
2022/07/30 11:50:20;;;;;;;4.87;4.47;;;34.50;45.80;;;;;;5025764;28;20283;-71
2022/07/30 11:52:54;;;;;;;4.83;4.43;;;34.50;46.30;;;;;;5041262;28;20707;-71
2022/07/30 11:55:41;;;;;;;3.20;3.00;;;34.50;45.20;;;;;;5049174;28;20662;-71
2022/07/30 11:58:10;;;;;;;3.40;3.10;;;34.30;45.50;;;;;;5046699;28;20304;-71
2022/07/30 12:00:40;;;;;;;3.70;3.40;;;34.10;45.60;;;;;;5053232;28;20199;-71
2022/07/30 12:03:13;;;;;;;2.93;2.73;;;34.00;45.40;;;;;;5048233;28;20217;-71
2022/07/30 12:05:41;;;;;;;3.20;2.63;;;34.00;46.70;;;;;;5050464;28;20207;-71
2022/07/30 12:08:10;;;;;;;3.93;3.40;;;34.00;46.80;;;;;;5043581;28;20210;-71
2022/07/30 12:10:59;;;;;;;3.10;2.90;;;34.10;46.20;;;;;;5044224;28;20231;-72
2022/07/30 12:13:27;;;;;;;4.00;3.60;;;34.10;46.20;;;;;;5051031;28;20294;-72
2022/07/30 12:16:12;;;;;;;2.97;2.67;;;34.10;45.80;;;;;;5049551;28;20233;-71
2022/07/30 12:18:39;;;;;;;4.13;2.43;;;34.10;46.20;;;;;;5046703;28;20194;-71
2022/07/30 12:21:10;;;;;;;3.80;2.77;;;34.10;46.00;;;;;;5047526;28;20194;-72
2022/07/30 12:23:40;;;;;;;2.90;2.70;;;34.20;45.20;;;;;;5038943;28;20528;-72
2022/07/30 12:26:18;;;;;;;2.50;2.30;;;34.20;43.20;;;;;;5043299;28;20221;-72
2022/07/30 12:28:46;;;;;;;2.70;2.30;;;34.10;43.70;;;;;;5062170;28;20202;-72
2022/07/30 12:31:15;;;;;;;2.40;2.23;;;34.00;43.20;;;;;;5047434;28;20686;-71
2022/07/30 12:33:42;;;;;;;2.67;1.80;;;34.00;44.10;;;;;;5043809;28;20205;-71
2022/07/30 12:36:21;;;;;;;3.23;2.97;;;34.10;44.20;;;;;;5049698;28;20222;-71
2022/07/30 12:38:51;;;;;;;3.97;2.63;;;34.30;43.70;;;;;;5049904;28;20213;-72
2022/07/30 12:41:18;;;;;;;2.20;2.00;;;34.30;44.00;;;;;;5038132;28;20645;-72
2022/07/30 12:43:52;;;;;;;2.60;2.40;;;34.40;44.20;;;;;;5047194;28;20229;-72
2022/07/30 12:46:22;;;;;;;5.37;2.00;;;34.50;44.40;;;;;;5037097;28;20293;-72
2022/07/30 12:49:01;;;;;;;2.83;2.63;;;34.70;45.40;;;;;;5059235;28;20195;-72
2022/07/30 12:51:52;;;;;;;2.33;2.13;;;34.80;43.90;;;;;;5041513;28;20210;-72
2022/07/30 12:54:27;;;;;;;2.50;2.30;;;34.80;42.40;;;;;;5043302;28;20203;-72
2022/07/30 12:56:56;;;;;;;2.60;2.40;;;34.80;43.50;;;;;;5049755;28;20555;-72
2022/07/30 12:59:24;;;;;;;3.60;2.53;;;34.70;41.90;;;;;;5048444;28;20282;-72
2022/07/30 13:01:52;;;;;;;2.30;2.20;;;34.60;41.80;;;;;;5046789;28;20210;-71
2022/07/30 13:04:20;;;;;;;2.63;2.20;;;34.40;42.40;;;;;;5040828;28;20221;-71
2022/07/30 13:07:04;;;;;;;2.30;2.17;;;34.30;43.10;;;;;;5048060;28;20282;-72
2022/07/30 13:09:32;;;;;;;2.53;2.33;;;34.40;43.70;;;;;;5045088;28;20547;-72
2022/07/30 13:11:59;;;;;;;2.40;2.20;;;34.50;43.60;;;;;;5050026;28;20265;-71
2022/07/30 13:14:26;;;;;;;2.50;2.30;;;34.60;43.40;;;;;;5047690;28;20257;-72